createdAt,value
2023-02-09T00:01:31.550Z,67.21
2023-02-09T00:04:00.852Z,67.19
2023-02-09T00:06:29.877Z,67.32
2023-02-09T00:08:58.674Z,67.06
2023-02-09T00:11:47.766Z,67.15
2023-02-09T00:14:19.202Z,67.33
2023-02-09T00:16:48.605Z,67.27
2023-02-09T00:19:15.699Z,67.44
2023-02-09T00:21:42.683Z,67.51
2023-02-09T00:24:13.263Z,67.22
2023-02-09T00:26:41.506Z,67.22
2023-02-09T00:29:09.420Z,67.28
2023-02-09T00:31:36.987Z,67.45
2023-02-09T00:34:05.026Z,67.04
2023-02-09T00:36:32.430Z,66.96
2023-02-09T00:38:59.876Z,67.16
2023-02-09T00:41:45.280Z,66.99
2023-02-09T00:44:12.500Z,67.43
2023-02-09T00:46:39.540Z,67.01
2023-02-09T00:49:06.743Z,67.38
2023-02-09T00:51:34.480Z,66.93
2023-02-09T00:54:03.320Z,67.41
2023-02-09T00:56:30.389Z,67.16
2023-02-09T00:58:57.315Z,67.29
2023-02-09T01:01:25.421Z,66.91
2023-02-09T01:03:53.365Z,66.63
2023-02-09T01:06:21.026Z,67.12
2023-02-09T01:08:48.110Z,66.67
2023-02-09T01:11:16.057Z,67.31
2023-02-09T01:13:43.765Z,66.78
2023-02-09T01:16:15.319Z,67.27
2023-02-09T01:18:43.266Z,66.84
2023-02-09T01:21:16.989Z,66.81
2023-02-09T01:23:44.966Z,67.20
2023-02-09T01:26:13.252Z,67.37
2023-02-09T01:28:40.982Z,66.87
2023-02-09T01:31:28.944Z,66.94
2023-02-09T01:33:58.464Z,66.91
2023-02-09T01:36:28.906Z,67.24
2023-02-09T01:39:01.292Z,66.82
2023-02-09T01:41:28.539Z,67.34
2023-02-09T01:44:24.623Z,66.65
2023-02-09T01:46:51.574Z,67.34
2023-02-09T01:49:23.438Z,67.19
2023-02-09T01:52:06.082Z,67.23
2023-02-09T01:54:37.704Z,67.21
2023-02-09T01:57:18.724Z,66.95
2023-02-09T01:59:53.773Z,67.06
2023-02-09T02:02:22.399Z,67.23
2023-02-09T02:04:51.157Z,66.89
2023-02-09T02:07:30.294Z,67.03
2023-02-09T02:10:00.959Z,67.15
2023-02-09T02:12:28.136Z,67.26
2023-02-09T02:14:55.093Z,67.06
2023-02-09T02:17:47.672Z,67.13
2023-02-09T02:20:48.111Z,67.21
2023-02-09T02:24:19.281Z,67.05
2023-02-09T02:26:57.955Z,67.38
2023-02-09T02:29:59.430Z,67.09
2023-02-09T02:32:51.200Z,67.04
2023-02-09T02:35:58.019Z,66.93
2023-02-09T02:38:54.360Z,67.17
2023-02-09T02:41:30.380Z,67.33
2023-02-09T02:44:17.263Z,67.25
2023-02-09T02:46:52.662Z,67.27
2023-02-09T02:49:53.134Z,67.11
2023-02-09T02:52:20.062Z,67.30
2023-02-09T02:54:57.251Z,67.45
2023-02-09T02:57:31.244Z,67.45
2023-02-09T03:00:06.474Z,67.35
2023-02-09T03:02:40.150Z,67.50
2023-02-09T03:05:08.495Z,67.48
2023-02-09T03:07:35.484Z,67.43
2023-02-09T03:10:03.407Z,67.55
2023-02-09T03:13:03.876Z,67.37
2023-02-09T03:16:03.656Z,67.38
2023-02-09T03:18:56.934Z,67.38
2023-02-09T03:21:41.301Z,67.47
2023-02-09T03:24:37.503Z,67.61
2023-02-09T03:27:25.179Z,67.68
2023-02-09T03:29:59.086Z,67.97
2023-02-09T03:32:27.259Z,67.91
2023-02-09T03:34:56.059Z,68.04
2023-02-09T03:37:23.854Z,68.08
2023-02-09T03:39:50.769Z,68.14
2023-02-09T03:42:17.724Z,68.33
2023-02-09T03:44:44.633Z,68.42
2023-02-09T03:47:11.711Z,68.62
2023-02-09T03:49:41.419Z,68.56
2023-02-09T03:52:13.236Z,68.78
2023-02-09T03:54:40.428Z,68.70
2023-02-09T03:57:07.848Z,68.67
2023-02-09T03:59:38.096Z,68.94
2023-02-09T04:02:07.581Z,69.12
2023-02-09T04:04:34.652Z,68.80
2023-02-09T04:07:01.576Z,68.64
2023-02-09T04:09:28.718Z,68.85
2023-02-09T04:11:55.992Z,68.97
2023-02-09T04:14:24.218Z,68.70
2023-02-09T04:16:51.153Z,68.56
2023-02-09T04:19:18.067Z,68.75
2023-02-09T04:21:45.008Z,68.87
2023-02-09T04:24:12.083Z,68.67
2023-02-09T04:26:39.092Z,69.19
2023-02-09T04:29:06.084Z,69.20
2023-02-09T04:31:34.730Z,69.16
2023-02-09T04:34:01.847Z,69.07
2023-02-09T04:36:29.005Z,69.52
2023-02-09T04:38:56.065Z,69.74
2023-02-09T04:41:23.208Z,69.49
2023-02-09T04:43:50.224Z,69.45
2023-02-09T04:46:19.043Z,69.39
2023-02-09T04:48:46.724Z,69.55
2023-02-09T04:51:13.931Z,69.68
2023-02-09T04:53:40.848Z,69.74
2023-02-09T04:56:08.345Z,69.81
2023-02-09T04:59:10.355Z,69.65
2023-02-09T05:01:37.259Z,70.00
2023-02-09T05:04:04.312Z,70.08
2023-02-09T05:06:31.237Z,70.09
2023-02-09T05:08:58.171Z,70.04
2023-02-09T05:11:25.733Z,69.99
2023-02-09T05:13:52.715Z,69.86
2023-02-09T05:16:19.694Z,69.82
2023-02-09T05:18:46.756Z,70.06
2023-02-09T05:21:14.323Z,69.70
2023-02-09T05:23:41.763Z,70.53
2023-02-09T05:26:09.016Z,69.97
2023-02-09T05:28:36.395Z,70.32
2023-02-09T05:31:03.510Z,70.29
2023-02-09T05:33:30.524Z,69.92
2023-02-09T05:35:57.416Z,70.18
2023-02-09T05:38:24.503Z,70.35
2023-02-09T05:40:51.658Z,69.92
2023-02-09T05:43:18.908Z,70.10
2023-02-09T05:45:46.657Z,69.97
2023-02-09T05:48:13.705Z,69.88
2023-02-09T05:50:40.711Z,69.74
2023-02-09T05:53:09.270Z,69.46
2023-02-09T05:55:36.235Z,69.58
2023-02-09T05:58:03.274Z,69.62
2023-02-09T06:00:30.391Z,69.52
2023-02-09T06:02:58.486Z,69.21
2023-02-09T06:05:25.907Z,69.42
2023-02-09T06:07:53.126Z,69.22
2023-02-09T06:10:20.261Z,69.53
2023-02-09T06:12:47.349Z,69.76
2023-02-09T06:15:16.174Z,69.42
2023-02-09T06:17:43.323Z,69.81
2023-02-09T06:20:11.195Z,69.52
2023-02-09T06:22:38.112Z,69.52
2023-02-09T06:25:05.416Z,69.50
2023-02-09T06:27:32.349Z,69.51
2023-02-09T06:29:59.386Z,69.68
2023-02-09T06:32:26.330Z,69.85
2023-02-09T06:34:53.286Z,69.41
2023-02-09T06:37:20.207Z,69.42
2023-02-09T06:39:47.109Z,69.43
2023-02-09T06:42:14.010Z,69.69
2023-02-09T06:44:40.925Z,69.68
2023-02-09T06:47:07.872Z,69.76
2023-02-09T06:49:34.769Z,69.97
2023-02-09T06:52:01.948Z,70.16
2023-02-09T06:54:29.268Z,69.88
2023-02-09T06:56:56.222Z,70.23
2023-02-09T06:59:23.451Z,69.92
2023-02-09T07:01:54.602Z,70.05
2023-02-09T07:04:22.260Z,70.40
2023-02-09T07:06:49.310Z,70.26
2023-02-09T07:09:16.455Z,70.29
2023-02-09T07:11:43.768Z,70.06
2023-02-09T07:14:10.774Z,70.51
2023-02-09T07:16:37.676Z,70.42
2023-02-09T07:19:04.582Z,70.34
2023-02-09T07:21:31.534Z,70.29
2023-02-09T07:23:58.481Z,70.50
2023-02-09T07:26:25.507Z,70.21
2023-02-09T07:28:52.459Z,70.30
2023-02-09T07:31:19.614Z,70.20
2023-02-09T07:33:47.005Z,70.43
2023-02-09T07:36:16.249Z,70.31
2023-02-09T07:38:43.795Z,70.40
2023-02-09T07:41:22.085Z,70.38
2023-02-09T07:43:49.080Z,70.34
2023-02-09T07:46:19.374Z,70.22
2023-02-09T07:48:46.890Z,70.47
2023-02-09T07:51:16.269Z,70.63
2023-02-09T07:53:43.560Z,70.49
2023-02-09T07:56:10.469Z,70.76
2023-02-09T07:58:37.430Z,70.54
2023-02-09T08:01:08.380Z,70.71
2023-02-09T08:03:36.922Z,70.81
2023-02-09T08:06:19.587Z,70.83
2023-02-09T08:08:49.799Z,70.95
2023-02-09T08:11:32.655Z,70.81
2023-02-09T08:14:06.127Z,70.85
2023-02-09T08:16:34.421Z,71.07
2023-02-09T08:19:08.778Z,70.84
2023-02-09T08:21:39.724Z,70.89
2023-02-09T08:24:07.658Z,70.89
2023-02-09T08:26:35.643Z,70.99
2023-02-09T08:29:03.230Z,70.71
2023-02-09T08:31:30.356Z,70.78
2023-02-09T08:33:57.325Z,70.95
2023-02-09T08:36:24.307Z,71.05
2023-02-09T08:38:51.284Z,70.96
2023-02-09T08:41:18.575Z,70.93
2023-02-09T08:43:50.096Z,70.83
2023-02-09T08:46:18.035Z,70.37
2023-02-09T08:48:47.055Z,70.54
2023-02-09T08:51:15.871Z,70.89
2023-02-09T08:53:43.954Z,70.53
2023-02-09T08:56:10.878Z,70.87
2023-02-09T08:58:37.955Z,70.89
2023-02-09T09:01:05.570Z,71.03
2023-02-09T09:03:32.805Z,70.80
2023-02-09T09:06:06.189Z,71.06
2023-02-09T09:08:35.654Z,71.06
2023-02-09T09:11:02.630Z,70.71
2023-02-09T09:13:29.759Z,70.82
2023-02-09T09:15:56.681Z,71.09
2023-02-09T09:18:26.470Z,71.26
2023-02-09T09:20:56.086Z,71.43
2023-02-09T09:23:23.580Z,71.23
2023-02-09T09:25:50.609Z,71.79
2023-02-09T09:28:17.574Z,71.51
2023-02-09T09:30:44.576Z,71.19
2023-02-09T09:33:11.608Z,71.73
2023-02-09T09:35:38.672Z,71.89
2023-02-09T09:38:05.597Z,72.01
2023-02-09T09:40:37.291Z,71.88
2023-02-09T09:43:14.896Z,71.80
2023-02-09T09:45:42.003Z,71.98
2023-02-09T09:48:25.747Z,71.73
2023-02-09T09:51:15.694Z,71.35
2023-02-09T09:53:46.891Z,71.28
2023-02-09T09:56:15.166Z,70.65
2023-02-09T09:58:44.864Z,71.98
2023-02-09T10:01:18.137Z,72.17
2023-02-09T10:03:45.357Z,72.18
2023-02-09T10:06:19.394Z,72.17
2023-02-09T10:09:07.828Z,72.23
2023-02-09T10:11:45.707Z,72.33
2023-02-09T10:14:12.650Z,71.99
2023-02-09T10:16:40.630Z,71.85
2023-02-09T10:19:23.629Z,70.54
2023-02-09T10:21:50.621Z,70.82
2023-02-09T10:24:30.731Z,70.40
2023-02-09T10:27:14.713Z,71.49
2023-02-09T10:29:42.506Z,72.06
2023-02-09T10:32:38.836Z,71.33
2023-02-09T10:35:29.322Z,71.61
2023-02-09T10:38:02.316Z,71.19
2023-02-09T10:40:33.167Z,71.92
2023-02-09T10:43:09.739Z,70.72
2023-02-09T10:45:46.606Z,72.37
2023-02-09T10:48:13.571Z,72.46
2023-02-09T10:51:01.789Z,70.72
2023-02-09T10:53:37.695Z,71.90
2023-02-09T10:56:22.464Z,71.96
2023-02-09T10:59:00.261Z,70.61
2023-02-09T11:01:34.449Z,72.07
2023-02-09T11:04:16.902Z,72.51
2023-02-09T11:07:10.130Z,72.41
2023-02-09T11:09:44.376Z,73.00
2023-02-09T11:12:12.982Z,73.07
2023-02-09T11:14:42.446Z,72.91
2023-02-09T11:17:30.818Z,73.33
2023-02-09T11:20:32.060Z,73.33
2023-02-09T11:23:33.308Z,74.09
2023-02-09T11:26:35.747Z,73.72
2023-02-09T11:29:24.194Z,73.71
2023-02-09T11:32:47.407Z,74.09
2023-02-09T11:35:18.912Z,73.82
2023-02-09T11:38:05.963Z,73.80
2023-02-09T11:40:49.093Z,73.40
2023-02-09T11:43:36.336Z,74.17
2023-02-09T11:46:17.255Z,74.16
2023-02-09T11:49:04.062Z,74.20
2023-02-09T11:51:38.169Z,74.40
2023-02-09T11:54:22.228Z,74.91
2023-02-09T11:57:11.730Z,74.03
2023-02-09T11:59:49.586Z,72.28
2023-02-09T12:02:53.921Z,73.28
2023-02-09T12:05:22.616Z,73.11
2023-02-09T12:08:22.317Z,73.98
2023-02-09T12:11:15.591Z,74.24
2023-02-09T12:14:12.791Z,73.93
2023-02-09T12:16:49.510Z,74.51
2023-02-09T12:19:34.202Z,74.75
2023-02-09T12:22:35.190Z,74.67
2023-02-09T12:25:16.701Z,74.90
2023-02-09T12:28:10.265Z,75.09
2023-02-09T12:30:40.127Z,74.29
2023-02-09T12:33:31.237Z,75.53
2023-02-09T12:36:10.183Z,75.19
2023-02-09T12:38:56.856Z,75.35
2023-02-09T12:41:41.059Z,74.88
2023-02-09T12:44:11.058Z,75.15
2023-02-09T12:46:55.628Z,75.81
2023-02-09T12:49:28.690Z,75.69
2023-02-09T12:52:01.756Z,75.79
2023-02-09T12:54:48.029Z,76.47
2023-02-09T12:57:15.958Z,75.65
2023-02-09T13:00:00.709Z,75.90
2023-02-09T13:02:52.478Z,75.64
2023-02-09T13:05:42.034Z,75.90
2023-02-09T13:08:13.089Z,75.93
2023-02-09T13:10:44.149Z,75.67
2023-02-09T13:13:10.939Z,74.60
2023-02-09T13:16:37.049Z,76.00
2023-02-09T13:19:10.004Z,75.61
2023-02-09T13:22:05.400Z,76.96
2023-02-09T13:24:44.785Z,76.35
2023-02-09T13:27:25.252Z,75.90
2023-02-09T13:29:55.307Z,76.16
2023-02-09T13:32:40.691Z,76.06
2023-02-09T13:35:32.884Z,76.95
2023-02-09T13:38:15.816Z,76.27
2023-02-09T13:40:50.804Z,76.91
2023-02-09T13:43:40.172Z,76.76
2023-02-09T13:46:07.171Z,76.43
2023-02-09T13:48:38.055Z,76.90
2023-02-09T13:51:18.543Z,76.95
2023-02-09T13:54:03.128Z,78.73
2023-02-09T13:56:32.309Z,77.51
2023-02-09T13:59:00.215Z,77.15
2023-02-09T14:01:36.523Z,78.33
2023-02-09T14:04:05.373Z,77.47
2023-02-09T14:07:11.456Z,78.99
2023-02-09T14:09:50.061Z,78.62
2023-02-09T14:12:49.582Z,78.37
2023-02-09T14:15:37.013Z,77.38
2023-02-09T14:18:20.068Z,77.69
2023-02-09T14:21:22.930Z,79.40
2023-02-09T14:24:20.198Z,79.45
2023-02-09T14:26:53.104Z,78.74
2023-02-09T14:29:37.992Z,79.16
2023-02-09T14:32:40.280Z,79.29
2023-02-09T14:35:30.089Z,79.80
2023-02-09T14:38:00.449Z,78.96
2023-02-09T14:40:27.526Z,78.98
2023-02-09T14:43:27.226Z,80.73
2023-02-09T14:46:01.801Z,79.97
2023-02-09T14:48:30.420Z,79.04
2023-02-09T14:51:10.163Z,79.82
2023-02-09T14:53:37.197Z,79.21
2023-02-09T14:56:04.362Z,77.87
2023-02-09T14:58:33.723Z,77.67
2023-02-09T15:01:02.754Z,78.43
2023-02-09T15:03:29.791Z,78.59
2023-02-09T15:06:02.841Z,79.13
2023-02-09T15:08:35.069Z,78.24
2023-02-09T15:11:28.927Z,77.85
2023-02-09T15:14:03.843Z,77.22
2023-02-09T15:16:31.768Z,76.46
2023-02-09T15:18:58.991Z,75.86
2023-02-09T15:21:25.892Z,76.16
2023-02-09T15:23:52.880Z,75.85
2023-02-09T15:26:22.620Z,75.72
2023-02-09T15:28:49.757Z,75.19
2023-02-09T15:31:16.758Z,74.75
2023-02-09T15:33:43.838Z,75.39
2023-02-09T15:36:18.143Z,76.05
2023-02-09T15:38:45.089Z,75.29
2023-02-09T15:41:30.556Z,75.16
2023-02-09T15:44:16.165Z,74.99
2023-02-09T15:47:04.500Z,75.69
2023-02-09T15:49:31.899Z,75.55
2023-02-09T15:51:58.832Z,75.07
2023-02-09T15:54:31.668Z,74.98
2023-02-09T15:57:00.250Z,74.81
2023-02-09T15:59:27.142Z,74.39
2023-02-09T16:01:54.084Z,74.21
2023-02-09T16:04:21.014Z,73.35
2023-02-09T16:06:53.923Z,73.79
2023-02-09T16:09:27.657Z,73.73
2023-02-09T16:11:54.871Z,73.93
2023-02-09T16:14:26.049Z,73.59
2023-02-09T16:16:53.138Z,73.12
2023-02-09T16:19:21.189Z,73.33
2023-02-09T16:21:54.007Z,73.18
2023-02-09T16:24:33.467Z,73.61
2023-02-09T16:27:04.411Z,72.99
2023-02-09T16:29:31.325Z,72.74
2023-02-09T16:31:58.226Z,72.78
2023-02-09T16:34:25.164Z,72.63
2023-02-09T16:36:52.154Z,72.29
2023-02-09T16:39:21.926Z,71.71
2023-02-09T16:41:51.638Z,71.21
2023-02-09T16:44:23.304Z,71.11
2023-02-09T16:46:56.360Z,71.02
2023-02-09T16:49:34.784Z,70.89
2023-02-09T16:52:11.662Z,71.17
2023-02-09T16:54:46.914Z,70.76
2023-02-09T16:57:18.133Z,70.53
2023-02-09T16:59:45.592Z,70.44
2023-02-09T17:02:36.025Z,69.90
2023-02-09T17:05:19.029Z,69.71
2023-02-09T17:07:54.606Z,69.94
2023-02-09T17:10:28.664Z,69.59
2023-02-09T17:12:55.757Z,70.00
2023-02-09T17:15:31.019Z,70.03
2023-02-09T17:18:07.216Z,69.75
2023-02-09T17:20:42.989Z,69.68
2023-02-09T17:23:21.360Z,69.57
2023-02-09T17:25:51.485Z,69.96
2023-02-09T17:28:19.268Z,69.82
2023-02-09T17:30:47.892Z,69.82
2023-02-09T17:33:34.392Z,69.53
2023-02-09T17:38:50.506Z,69.72
2023-02-09T17:41:28.202Z,69.49
2023-02-09T17:43:58.816Z,69.71
2023-02-09T17:46:27.812Z,69.50
2023-02-09T17:48:54.787Z,69.69
2023-02-09T17:51:37.328Z,69.58
2023-02-09T17:54:06.038Z,69.33
2023-02-09T17:56:33.434Z,69.43
2023-02-09T17:59:02.976Z,69.58
2023-02-09T18:01:31.774Z,69.27
2023-02-09T18:04:01.987Z,69.17
2023-02-09T18:06:39.728Z,69.12
2023-02-09T18:09:10.806Z,69.20
2023-02-09T18:11:57.903Z,68.81
2023-02-09T18:14:26.495Z,69.10
2023-02-09T18:16:55.012Z,69.03
2023-02-09T18:19:23.969Z,69.09
2023-02-09T18:21:59.806Z,69.03
2023-02-09T18:24:30.918Z,68.95
2023-02-09T18:26:57.995Z,68.64
2023-02-09T18:29:31.623Z,68.91
2023-02-09T18:32:00.698Z,68.87
2023-02-09T18:34:28.433Z,68.76
2023-02-09T18:36:55.702Z,69.00
2023-02-09T18:39:22.723Z,69.02
2023-02-09T18:41:54.067Z,69.02
2023-02-09T18:44:28.910Z,68.88
2023-02-09T18:47:00.606Z,68.74
2023-02-09T18:49:28.125Z,68.97
2023-02-09T18:51:56.935Z,69.02
2023-02-09T18:54:23.917Z,68.84
2023-02-09T18:56:52.675Z,68.96
2023-02-09T18:59:19.630Z,68.81
2023-02-09T19:01:46.730Z,68.85
2023-02-09T19:04:13.747Z,68.73
2023-02-09T19:06:40.675Z,68.34
2023-02-09T19:09:07.668Z,68.53
2023-02-09T19:11:35.629Z,68.65
2023-02-09T19:14:20.836Z,68.48
2023-02-09T19:16:47.753Z,68.40
2023-02-09T19:19:16.043Z,68.46
2023-02-09T19:21:42.975Z,68.47
2023-02-09T19:24:09.886Z,68.52
2023-02-09T19:26:36.819Z,68.41
2023-02-09T19:29:03.722Z,68.38
2023-02-09T19:31:30.709Z,68.46
2023-02-09T19:33:57.909Z,68.37
2023-02-09T19:36:27.786Z,68.51
2023-02-09T19:38:56.253Z,68.52
2023-02-09T19:41:25.446Z,68.60
2023-02-09T19:43:57.327Z,68.60
2023-02-09T19:46:25.398Z,68.50
2023-02-09T19:48:53.756Z,68.66
2023-02-09T19:51:21.165Z,68.63
2023-02-09T19:53:48.524Z,68.62
2023-02-09T19:56:19.240Z,68.71
2023-02-09T19:58:46.719Z,68.63
2023-02-09T20:01:13.632Z,68.47
2023-02-09T20:03:40.599Z,68.57
2023-02-09T20:06:10.700Z,68.59
2023-02-09T20:08:38.165Z,68.60
2023-02-09T20:11:16.645Z,68.38
2023-02-09T20:13:43.686Z,68.58
2023-02-09T20:16:16.817Z,68.53
2023-02-09T20:18:44.523Z,68.34
2023-02-09T20:21:12.435Z,68.12
2023-02-09T20:23:39.351Z,68.54
2023-02-09T20:26:12.690Z,68.18
2023-02-09T20:28:39.849Z,68.63
2023-02-09T20:31:08.050Z,68.21
2023-02-09T20:33:37.538Z,68.15
2023-02-09T20:36:09.164Z,68.53
2023-02-09T20:38:37.213Z,68.37
2023-02-09T20:41:10.423Z,68.16
2023-02-09T20:43:56.658Z,68.22
2023-02-09T20:46:45.094Z,68.36
2023-02-09T20:49:14.784Z,68.22
2023-02-09T20:51:42.059Z,68.30
2023-02-09T20:54:09.435Z,68.34
2023-02-09T20:56:36.607Z,68.36
2023-02-09T20:59:05.618Z,68.17
2023-02-09T21:01:33.015Z,68.16
2023-02-09T21:04:00.370Z,68.16
2023-02-09T21:06:27.881Z,67.89
2023-02-09T21:08:55.277Z,68.13
2023-02-09T21:11:22.315Z,68.17
2023-02-09T21:13:49.245Z,68.18
2023-02-09T21:16:16.556Z,68.16
2023-02-09T21:18:45.658Z,68.10
2023-02-09T21:21:16.797Z,67.80
2023-02-09T21:23:44.236Z,67.55
2023-02-09T21:26:16.461Z,68.10
2023-02-09T21:28:43.961Z,68.04
2023-02-09T21:31:17.055Z,67.75
2023-02-09T21:33:44.302Z,68.08
2023-02-09T21:36:11.283Z,67.93
2023-02-09T21:38:41.439Z,67.97
2023-02-09T21:41:37.422Z,67.80
2023-02-09T21:44:05.779Z,67.79
2023-02-09T21:46:34.432Z,67.98
2023-02-09T21:49:01.691Z,67.97
2023-02-09T21:51:28.603Z,67.88
2023-02-09T21:53:55.578Z,67.87
2023-02-09T21:56:22.556Z,67.92
2023-02-09T21:58:49.558Z,68.00
2023-02-09T22:01:16.637Z,67.89
2023-02-09T22:03:43.891Z,67.65
2023-02-09T22:06:11.220Z,67.80
2023-02-09T22:08:38.159Z,68.00
2023-02-09T22:11:06.136Z,67.89
2023-02-09T22:13:33.977Z,67.89
2023-02-09T22:16:05.883Z,67.74
2023-02-09T22:18:33.378Z,67.88
2023-02-09T22:21:00.451Z,67.87
2023-02-09T22:23:27.419Z,67.87
2023-02-09T22:26:02.173Z,67.94
2023-02-09T22:28:29.365Z,67.95
2023-02-09T22:30:56.958Z,68.08
2023-02-09T22:33:24.137Z,68.18
2023-02-09T22:35:51.060Z,68.14
2023-02-09T22:38:17.996Z,68.17
2023-02-09T22:40:44.907Z,68.23
2023-02-09T22:43:11.792Z,68.20
2023-02-09T22:45:38.689Z,68.17
2023-02-09T22:48:05.778Z,68.60
2023-02-09T22:50:32.799Z,68.50
2023-02-09T22:52:59.792Z,68.56
2023-02-09T22:55:26.714Z,68.49
2023-02-09T22:57:53.653Z,68.60
2023-02-09T23:00:20.671Z,68.73
2023-02-09T23:02:48.725Z,68.55
2023-02-09T23:05:15.707Z,68.15
2023-02-09T23:07:45.034Z,68.22
2023-02-09T23:10:12.741Z,68.16
2023-02-09T23:12:39.755Z,68.35
2023-02-09T23:15:07.525Z,68.28
2023-02-09T23:17:34.472Z,68.16
2023-02-09T23:20:01.363Z,68.38
2023-02-09T23:22:28.277Z,68.05
2023-02-09T23:24:55.217Z,68.12
2023-02-09T23:27:22.159Z,68.47
2023-02-09T23:29:49.104Z,68.78
2023-02-09T23:32:16.005Z,68.98
2023-02-09T23:34:42.959Z,68.55
2023-02-09T23:37:18.564Z,68.77
2023-02-09T23:39:55.788Z,68.66
2023-02-09T23:42:22.779Z,68.67
2023-02-09T23:44:49.686Z,69.17
2023-02-09T23:47:16.703Z,68.56
2023-02-09T23:49:43.666Z,69.07
2023-02-09T23:52:10.608Z,69.08
2023-02-09T23:54:37.526Z,69.03
2023-02-09T23:57:04.458Z,68.97
2023-02-09T23:59:31.379Z,68.86
